Aérodrome :
LOGIN :

S'inscrire | Disclaimer

   EN    FR    IT 

 










Légende :    VFR   VFR Marginal   IFR   IFR Intensif   IFR Très Intensif
Visi : 
Plafond : 
>= 8 km
>= 3000ft
5 à 8 km
1000 à 3000 ft
1500m à 5 km
500 à 1000 ft
800 à 1500m
200 à 500 ft
< 800m
< 200 ft
Symboles :   Orages  Brouillard  Fortes neiges  Fortes précipitations  Vent > 20 kt
SIGMETs :   Divers  Orages  Givrage  Turbulence  Onde Orograph.  Cendres Volcan.







- Altitude de l'aérodrome : 53 ft
- Code IATA : HRT


EGXU - RAF Linton-on-Ouse

DERNIER METAR :
  • 230550Z AUTO 21008KT 9999 // FEW020/// 16/15 Q1022

METARs EXPIRÉS :
  • 230450Z AUTO 19008KT 9999 // FEW060/// 16/15 Q1022
  • 230350Z AUTO 19004KT 9999 // SCT017/// 16/15 Q1022

TAF TAF EGXU
Valide du 23 à 06h jusqu'au 23 à 15h UTC


230603Z 2306/2315 23009KT 9999 FEW018
TEMPO 2306/2311 SCT018
PROB40
TEMPO 2306/2308 6000 BR SCT013
Pas de NOTAMs connus pour ce terrain.



MET'MAP, la Météo Aéronautique d'un coup d'oeil ! - Copyright ORBIFLY Décembre 2007 - Disclaimer

ORBIFLY MET'MAP TEAM :

Programmation & Développement : Alexandra Zaïnal
Conception & Développement : Baudouin d'Aumeries
Co-Programmation & Développement : Marc-Olivier Méhu
Soutien technique & logistique : Manuel Goepfert

Contact : metmap@orbifly.com




SOURCES & CREDITS :

   NOAA